createdAt,value
2023-01-10T00:02:10.735Z,6.90
2023-01-10T00:04:38.877Z,7.02
2023-01-10T00:07:06.952Z,7.00
2023-01-10T00:09:35.025Z,7.08
2023-01-10T00:12:23.147Z,7.20
2023-01-10T00:14:52.784Z,7.07
2023-01-10T00:17:22.282Z,7.22
2023-01-10T00:19:50.362Z,7.18
2023-01-10T00:22:25.200Z,7.15
2023-01-10T00:24:53.426Z,7.20
2023-01-10T00:27:23.672Z,7.23
2023-01-10T00:29:53.392Z,7.29
2023-01-10T00:32:23.094Z,7.30
2023-01-10T00:34:51.260Z,7.51
2023-01-10T00:37:19.713Z,7.53
2023-01-10T00:39:47.815Z,7.69
2023-01-10T00:42:33.359Z,7.67
2023-01-10T00:45:01.398Z,7.74
2023-01-10T00:47:30.862Z,7.84
2023-01-10T00:49:59.000Z,7.84
2023-01-10T00:52:27.080Z,7.90
2023-01-10T00:54:55.124Z,7.91
2023-01-10T00:57:23.253Z,7.84
2023-01-10T00:59:51.290Z,7.75
2023-01-10T01:02:19.601Z,7.75
2023-01-10T01:04:49.095Z,7.80
2023-01-10T01:07:17.222Z,7.80
2023-01-10T01:09:59.204Z,7.88
2023-01-10T01:12:27.356Z,7.84
2023-01-10T01:14:55.471Z,7.82
2023-01-10T01:17:23.555Z,7.75
2023-01-10T01:19:53.015Z,7.52
2023-01-10T01:22:21.211Z,7.32
2023-01-10T01:24:49.314Z,7.10
2023-01-10T01:27:17.462Z,7.03
2023-01-10T01:29:45.548Z,6.84
2023-01-10T01:32:13.617Z,6.90
2023-01-10T01:34:42.029Z,6.65
2023-01-10T01:37:11.686Z,6.40
2023-01-10T01:39:39.781Z,6.38
2023-01-10T01:42:08.200Z,6.39
2023-01-10T01:44:40.623Z,6.23
2023-01-10T01:47:15.367Z,6.18
2023-01-10T01:49:46.269Z,6.09
2023-01-10T01:52:24.004Z,6.10
2023-01-10T01:54:54.503Z,5.97
2023-01-10T01:57:26.320Z,5.95
2023-01-10T01:59:56.928Z,5.87
2023-01-10T02:02:30.116Z,6.09
2023-01-10T02:05:02.058Z,5.84
2023-01-10T02:07:37.412Z,6.06
2023-01-10T02:10:11.860Z,5.94
2023-01-10T02:12:41.324Z,5.75
2023-01-10T02:15:12.281Z,5.80
2023-01-10T02:17:40.627Z,5.70
2023-01-10T02:20:12.468Z,5.77
2023-01-10T02:23:13.229Z,5.57
2023-01-10T02:26:24.760Z,5.69
2023-01-10T02:29:41.023Z,5.50
2023-01-10T02:32:45.910Z,5.48
2023-01-10T02:35:34.306Z,5.48
2023-01-10T02:38:12.864Z,5.58
2023-01-10T02:40:48.639Z,5.39
2023-01-10T02:43:21.316Z,5.56
2023-01-10T02:45:54.776Z,5.50
2023-01-10T02:48:24.672Z,5.50
2023-01-10T02:50:58.484Z,5.45
2023-01-10T02:53:33.386Z,5.31
2023-01-10T02:56:25.280Z,5.57
2023-01-10T02:59:28.060Z,5.48
2023-01-10T03:02:01.487Z,5.49
2023-01-10T03:04:45.664Z,5.48
2023-01-10T03:07:22.219Z,5.32
2023-01-10T03:09:56.900Z,5.58
2023-01-10T03:12:33.633Z,5.35
2023-01-10T03:15:05.025Z,5.35
2023-01-10T03:17:33.835Z,5.25
2023-01-10T03:20:07.241Z,5.38
2023-01-10T03:22:39.718Z,5.31
2023-01-10T03:25:12.835Z,5.38
2023-01-10T03:27:50.218Z,5.26
2023-01-10T03:30:26.216Z,5.47
2023-01-10T03:32:56.580Z,5.32
2023-01-10T03:35:36.045Z,5.21
2023-01-10T03:38:10.517Z,5.31
2023-01-10T03:40:54.536Z,5.26
2023-01-10T03:43:49.352Z,5.18
2023-01-10T03:46:26.135Z,5.10
2023-01-10T03:48:56.349Z,5.18
2023-01-10T03:51:27.252Z,5.00
2023-01-10T03:53:55.487Z,5.02
2023-01-10T03:56:23.496Z,5.23
2023-01-10T03:58:51.575Z,5.09
2023-01-10T04:01:20.519Z,5.15
2023-01-10T04:03:48.729Z,5.15
2023-01-10T04:06:17.594Z,5.06
2023-01-10T04:08:47.079Z,5.02
2023-01-10T04:11:15.196Z,4.91
2023-01-10T04:13:43.264Z,4.94
2023-01-10T04:16:11.483Z,5.14
2023-01-10T04:18:39.635Z,4.87
2023-01-10T04:21:07.946Z,4.85
2023-01-10T04:23:35.972Z,4.93
2023-01-10T04:26:05.834Z,5.05
2023-01-10T04:28:33.930Z,4.80
2023-01-10T04:31:02.891Z,5.04
2023-01-10T04:33:30.990Z,4.92
2023-01-10T04:35:59.103Z,4.81
2023-01-10T04:38:27.147Z,4.93
2023-01-10T04:40:56.424Z,4.83
2023-01-10T04:43:26.608Z,5.08
2023-01-10T04:45:54.833Z,4.93
2023-01-10T04:48:22.963Z,5.05
2023-01-10T04:50:51.978Z,5.08
2023-01-10T04:53:20.523Z,4.78
2023-01-10T04:55:49.045Z,4.90
2023-01-10T04:58:17.221Z,4.99
2023-01-10T05:00:46.739Z,4.82
2023-01-10T05:03:16.138Z,4.69
2023-01-10T05:05:44.326Z,4.73
2023-01-10T05:08:12.459Z,4.87
2023-01-10T05:10:40.567Z,4.90
2023-01-10T05:13:08.691Z,4.83
2023-01-10T05:15:36.818Z,4.93
2023-01-10T05:18:06.437Z,4.79
2023-01-10T05:20:34.593Z,4.97
2023-01-10T05:23:02.744Z,5.00
2023-01-10T05:25:30.877Z,4.86
2023-01-10T05:27:58.963Z,4.85
2023-01-10T05:30:27.065Z,4.67
2023-01-10T05:32:55.218Z,4.74
2023-01-10T05:35:24.651Z,4.88
2023-01-10T05:37:52.751Z,4.93
2023-01-10T05:40:20.922Z,4.80
2023-01-10T05:42:48.959Z,4.66
2023-01-10T05:45:17.262Z,4.72
2023-01-10T05:47:45.867Z,4.48
2023-01-10T05:50:14.087Z,4.53
2023-01-10T05:52:43.486Z,4.67
2023-01-10T05:55:11.709Z,4.74
2023-01-10T05:57:39.730Z,4.80
2023-01-10T06:00:09.389Z,4.66
2023-01-10T06:02:40.032Z,4.91
2023-01-10T06:05:08.810Z,4.38
2023-01-10T06:07:36.976Z,4.41
2023-01-10T06:10:07.287Z,4.48
2023-01-10T06:12:35.429Z,4.27
2023-01-10T06:15:03.920Z,4.41
2023-01-10T06:17:32.101Z,4.33
2023-01-10T06:20:00.138Z,4.40
2023-01-10T06:22:29.133Z,4.33
2023-01-10T06:24:57.200Z,4.55
2023-01-10T06:27:26.763Z,4.37
2023-01-10T06:29:54.860Z,4.13
2023-01-10T06:32:22.931Z,4.18
2023-01-10T06:34:51.012Z,4.24
2023-01-10T06:37:20.271Z,4.20
2023-01-10T06:39:48.545Z,3.86
2023-01-10T06:42:16.697Z,4.27
2023-01-10T06:44:46.991Z,4.25
2023-01-10T06:47:15.261Z,4.32
2023-01-10T06:49:43.409Z,4.40
2023-01-10T06:52:11.495Z,4.63
2023-01-10T06:54:39.757Z,4.44
2023-01-10T06:57:08.667Z,4.51
2023-01-10T06:59:36.835Z,4.24
2023-01-10T07:02:06.528Z,4.27
2023-01-10T07:04:34.943Z,4.07
2023-01-10T07:07:03.015Z,3.90
2023-01-10T07:09:31.097Z,4.06
2023-01-10T07:11:59.696Z,4.17
2023-01-10T07:14:27.805Z,4.25
2023-01-10T07:16:55.908Z,4.15
2023-01-10T07:19:25.386Z,3.99
2023-01-10T07:21:53.527Z,3.85
2023-01-10T07:24:21.621Z,3.91
2023-01-10T07:26:49.703Z,3.86
2023-01-10T07:29:17.745Z,3.87
2023-01-10T07:31:45.956Z,4.01
2023-01-10T07:34:14.015Z,4.04
2023-01-10T07:36:43.511Z,3.70
2023-01-10T07:39:11.697Z,3.84
2023-01-10T07:41:39.910Z,3.76
2023-01-10T07:44:08.087Z,3.96
2023-01-10T07:46:36.158Z,3.96
2023-01-10T07:49:04.332Z,4.18
2023-01-10T07:51:32.519Z,3.98
2023-01-10T07:54:02.060Z,4.27
2023-01-10T07:56:30.607Z,4.17
2023-01-10T07:58:58.803Z,4.42
2023-01-10T08:01:26.939Z,4.60
2023-01-10T08:03:55.112Z,4.51
2023-01-10T08:06:23.278Z,4.54
2023-01-10T08:08:51.341Z,4.71
2023-01-10T08:11:20.789Z,5.00
2023-01-10T08:13:48.877Z,4.78
2023-01-10T08:16:17.004Z,4.75
2023-01-10T08:18:45.094Z,4.66
2023-01-10T08:21:13.459Z,4.72
2023-01-10T08:23:41.514Z,4.92
2023-01-10T08:26:09.639Z,4.79
2023-01-10T08:28:39.158Z,4.65
2023-01-10T08:31:08.437Z,4.55
2023-01-10T08:33:38.058Z,4.49
2023-01-10T08:36:06.344Z,4.43
2023-01-10T08:38:34.435Z,4.64
2023-01-10T08:41:02.592Z,4.60
2023-01-10T08:43:30.620Z,4.63
2023-01-10T08:46:00.023Z,4.97
2023-01-10T08:48:28.340Z,5.19
2023-01-10T08:50:56.490Z,4.89
2023-01-10T08:53:24.578Z,5.29
2023-01-10T08:55:52.641Z,5.35
2023-01-10T08:58:20.753Z,4.96
2023-01-10T09:00:49.618Z,4.73
2023-01-10T09:03:19.256Z,5.04
2023-01-10T09:05:47.346Z,4.93
2023-01-10T09:08:15.609Z,5.20
2023-01-10T09:10:43.668Z,5.10
2023-01-10T09:13:11.730Z,5.09
2023-01-10T09:15:39.891Z,5.11
2023-01-10T09:18:08.879Z,4.85
2023-01-10T09:20:40.195Z,5.26
2023-01-10T09:23:09.556Z,5.28
2023-01-10T09:25:38.082Z,5.14
2023-01-10T09:28:07.325Z,5.19
2023-01-10T09:30:35.462Z,5.11
2023-01-10T09:33:04.357Z,5.28
2023-01-10T09:35:33.483Z,5.34
2023-01-10T09:38:03.247Z,5.63
2023-01-10T09:40:45.767Z,5.51
2023-01-10T09:43:21.376Z,5.79
2023-01-10T09:45:59.020Z,5.85
2023-01-10T09:48:35.424Z,5.72
2023-01-10T09:51:17.489Z,5.65
2023-01-10T09:53:48.656Z,5.37
2023-01-10T09:56:18.690Z,5.10
2023-01-10T09:58:48.462Z,4.99
2023-01-10T10:01:20.219Z,5.29
2023-01-10T10:03:55.265Z,5.68
2023-01-10T10:06:25.089Z,5.22
2023-01-10T10:08:54.990Z,5.19
2023-01-10T10:11:46.997Z,5.06
2023-01-10T10:14:28.209Z,5.16
2023-01-10T10:17:10.445Z,4.85
2023-01-10T10:19:54.001Z,5.03
2023-01-10T10:22:30.552Z,4.65
2023-01-10T10:25:10.116Z,4.55
2023-01-10T10:27:51.190Z,4.43
2023-01-10T10:30:42.615Z,4.59
2023-01-10T10:33:38.024Z,4.83
2023-01-10T10:36:13.154Z,4.91
2023-01-10T10:38:45.424Z,5.02
2023-01-10T10:41:20.833Z,5.06
2023-01-10T10:43:50.241Z,5.24
2023-01-10T10:46:20.208Z,5.36
2023-01-10T10:48:57.666Z,5.33
2023-01-10T10:51:31.385Z,5.36
2023-01-10T10:53:59.772Z,5.61
2023-01-10T10:56:29.422Z,5.43
2023-01-10T10:59:00.337Z,5.38
2023-01-10T11:01:28.852Z,5.22
2023-01-10T11:04:01.431Z,5.00
2023-01-10T11:06:34.101Z,5.01
2023-01-10T11:09:04.776Z,5.02
2023-01-10T11:11:38.368Z,5.01
2023-01-10T11:14:08.886Z,4.88
2023-01-10T11:16:40.482Z,5.17
2023-01-10T11:19:20.727Z,4.83
2023-01-10T11:21:53.432Z,4.96
2023-01-10T11:24:33.998Z,4.82
2023-01-10T11:27:15.448Z,4.67
2023-01-10T11:29:46.467Z,4.88
2023-01-10T11:32:16.882Z,4.69
2023-01-10T11:34:53.992Z,4.88
2023-01-10T11:37:25.285Z,5.02
2023-01-10T11:40:16.274Z,4.91
2023-01-10T11:42:46.064Z,4.86
2023-01-10T11:45:24.216Z,4.73
2023-01-10T11:47:55.748Z,4.94
2023-01-10T11:50:26.640Z,4.68
2023-01-10T11:52:55.783Z,4.85
2023-01-10T11:55:26.657Z,5.03
2023-01-10T11:58:06.536Z,5.06
2023-01-10T12:00:39.198Z,4.80
2023-01-10T12:03:23.850Z,4.57
2023-01-10T12:05:57.954Z,4.78
2023-01-10T12:08:29.936Z,5.12
2023-01-10T12:11:02.541Z,5.22
2023-01-10T12:13:45.627Z,5.10
2023-01-10T12:16:23.067Z,4.85
2023-01-10T12:18:52.590Z,4.76
2023-01-10T12:21:27.774Z,4.47
2023-01-10T12:24:00.699Z,4.36
2023-01-10T12:26:31.631Z,4.53
2023-01-10T12:29:13.727Z,4.82
2023-01-10T12:31:42.144Z,4.86
2023-01-10T12:34:20.153Z,4.94
2023-01-10T12:36:59.730Z,5.06
2023-01-10T12:39:33.589Z,5.12
2023-01-10T12:42:30.225Z,5.23
2023-01-10T12:45:06.314Z,4.66
2023-01-10T12:47:42.695Z,5.02
2023-01-10T12:50:15.668Z,4.66
2023-01-10T12:52:48.611Z,4.56
2023-01-10T12:55:17.853Z,4.71
2023-01-10T12:57:51.889Z,4.55
2023-01-10T13:00:25.826Z,4.85
2023-01-10T13:02:57.228Z,4.60
2023-01-10T13:05:27.428Z,4.74
2023-01-10T13:08:00.680Z,4.63
2023-01-10T13:10:30.082Z,4.94
2023-01-10T13:13:03.207Z,4.77
2023-01-10T13:15:36.428Z,4.78
2023-01-10T13:18:07.473Z,4.69
2023-01-10T13:20:45.903Z,4.71
2023-01-10T13:23:23.694Z,4.76
2023-01-10T13:25:57.392Z,4.65
2023-01-10T13:28:28.580Z,4.91
2023-01-10T13:31:01.309Z,5.04
2023-01-10T13:33:31.192Z,4.86
2023-01-10T13:36:10.049Z,5.01
2023-01-10T13:38:49.807Z,4.74
2023-01-10T13:41:35.981Z,4.54
2023-01-10T13:44:08.241Z,4.69
2023-01-10T13:46:43.459Z,4.88
2023-01-10T13:49:48.080Z,4.73
2023-01-10T13:52:33.605Z,4.98
2023-01-10T13:55:21.447Z,4.57
2023-01-10T13:58:44.693Z,4.67
2023-01-10T14:01:40.910Z,4.69
2023-01-10T14:04:21.349Z,4.62
2023-01-10T14:06:55.475Z,4.71
2023-01-10T14:09:45.402Z,4.66
2023-01-10T14:12:24.796Z,4.85
2023-01-10T14:14:57.323Z,4.94
2023-01-10T14:17:28.295Z,4.68
2023-01-10T14:20:08.574Z,4.72
2023-01-10T14:22:39.702Z,4.66
2023-01-10T14:25:18.250Z,4.90
2023-01-10T14:27:51.615Z,4.72
2023-01-10T14:30:24.277Z,4.81
2023-01-10T14:32:57.693Z,5.26
2023-01-10T14:35:35.098Z,5.08
2023-01-10T14:38:05.212Z,5.09
2023-01-10T14:40:46.701Z,5.48
2023-01-10T14:43:18.302Z,5.51
2023-01-10T14:45:55.554Z,5.48
2023-01-10T14:48:32.803Z,5.40
2023-01-10T14:51:22.064Z,5.49
2023-01-10T14:53:59.110Z,5.62
2023-01-10T14:56:29.147Z,5.66
2023-01-10T14:58:57.487Z,5.89
2023-01-10T15:01:28.711Z,5.59
2023-01-10T15:03:58.206Z,5.62
2023-01-10T15:06:27.846Z,5.56
2023-01-10T15:09:01.179Z,5.57
2023-01-10T15:11:31.702Z,5.67
2023-01-10T15:14:07.574Z,5.63
2023-01-10T15:16:37.244Z,5.62
2023-01-10T15:19:05.783Z,5.66
2023-01-10T15:21:42.313Z,5.60
2023-01-10T15:24:26.277Z,5.68
2023-01-10T15:26:54.586Z,5.69
2023-01-10T15:29:25.596Z,5.56
2023-01-10T15:31:57.481Z,5.52
2023-01-10T15:34:30.084Z,5.40
2023-01-10T15:37:01.806Z,5.28
2023-01-10T15:39:32.434Z,5.29
2023-01-10T15:42:02.845Z,5.30
2023-01-10T15:44:38.320Z,5.11
2023-01-10T15:47:07.009Z,5.22
2023-01-10T15:49:35.246Z,5.06
2023-01-10T15:52:04.793Z,4.73
2023-01-10T15:54:33.801Z,4.80
2023-01-10T15:57:08.767Z,4.66
2023-01-10T15:59:40.119Z,4.98
2023-01-10T16:02:22.788Z,4.95
2023-01-10T16:04:53.371Z,5.01
2023-01-10T16:07:27.524Z,4.93
2023-01-10T16:09:59.086Z,5.05
2023-01-10T16:12:52.752Z,5.07
2023-01-10T16:15:23.803Z,5.33
2023-01-10T16:17:52.572Z,5.36
2023-01-10T16:20:22.791Z,5.39
2023-01-10T16:22:52.521Z,5.35
2023-01-10T16:25:25.465Z,5.21
2023-01-10T16:27:56.293Z,5.37
2023-01-10T16:30:27.277Z,5.34
2023-01-10T16:32:57.322Z,5.72
2023-01-10T16:35:25.977Z,5.62
2023-01-10T16:37:58.362Z,5.84
2023-01-10T16:40:29.892Z,5.95
2023-01-10T16:43:15.351Z,6.06
2023-01-10T16:45:43.445Z,6.15
2023-01-10T16:48:11.746Z,6.01
2023-01-10T16:50:40.060Z,5.99
2023-01-10T16:53:12.199Z,5.96
2023-01-10T16:55:42.897Z,5.97
2023-01-10T16:58:11.807Z,5.89
2023-01-10T17:00:41.268Z,6.03
2023-01-10T17:03:14.441Z,5.99
2023-01-10T17:05:42.894Z,5.86
2023-01-10T17:08:16.874Z,6.15
2023-01-10T17:10:47.032Z,5.81
2023-01-10T17:13:21.611Z,5.77
2023-01-10T17:15:49.741Z,5.27
2023-01-10T17:18:17.959Z,5.20
2023-01-10T17:20:50.096Z,4.75
2023-01-10T17:23:24.197Z,4.84
2023-01-10T17:25:59.958Z,4.64
2023-01-10T17:28:29.066Z,4.87
2023-01-10T17:30:58.057Z,4.67
2023-01-10T17:33:26.826Z,4.95
2023-01-10T17:35:56.500Z,4.75
2023-01-10T17:38:27.115Z,4.62
2023-01-10T17:40:56.605Z,4.36
2023-01-10T17:43:24.972Z,4.66
2023-01-10T17:45:53.185Z,4.87
2023-01-10T17:48:21.803Z,5.14
2023-01-10T17:50:56.094Z,5.39
2023-01-10T17:53:25.606Z,5.25
2023-01-10T17:55:54.609Z,5.43
2023-01-10T17:58:23.177Z,5.39
2023-01-10T18:00:51.390Z,5.50
2023-01-10T18:03:19.550Z,5.64
2023-01-10T18:05:51.842Z,5.56
2023-01-10T18:08:20.221Z,5.59
2023-01-10T18:10:50.183Z,5.52
2023-01-10T18:13:20.447Z,5.51
2023-01-10T18:15:52.413Z,5.61
2023-01-10T18:18:23.058Z,5.81
2023-01-10T18:20:53.166Z,5.71
2023-01-10T18:23:25.411Z,5.87
2023-01-10T18:25:57.469Z,5.88
2023-01-10T18:28:40.047Z,5.73
2023-01-10T18:31:11.424Z,5.59
2023-01-10T18:33:39.571Z,5.63
2023-01-10T18:36:09.763Z,5.74
2023-01-10T18:38:38.529Z,5.66
2023-01-10T18:41:08.118Z,5.57
2023-01-10T18:43:36.503Z,5.54
2023-01-10T18:46:07.281Z,5.44
2023-01-10T18:48:35.406Z,5.58
2023-01-10T18:51:05.615Z,5.39
2023-01-10T18:53:33.999Z,5.48
2023-01-10T18:56:04.538Z,5.59
2023-01-10T18:58:35.706Z,5.35
2023-01-10T19:01:07.992Z,5.73
2023-01-10T19:03:36.810Z,5.75
2023-01-10T19:06:07.069Z,5.73
2023-01-10T19:08:36.520Z,5.45
2023-01-10T19:11:13.880Z,5.49
2023-01-10T19:13:44.868Z,5.32
2023-01-10T19:16:16.305Z,5.25
2023-01-10T19:18:45.199Z,4.89
2023-01-10T19:21:16.055Z,5.06
2023-01-10T19:23:44.607Z,5.01
2023-01-10T19:26:13.137Z,5.04
2023-01-10T19:28:41.961Z,5.20
2023-01-10T19:31:16.248Z,5.16
2023-01-10T19:33:44.494Z,5.08
2023-01-10T19:36:13.167Z,5.20
2023-01-10T19:38:41.366Z,5.05
2023-01-10T19:41:09.670Z,4.99
2023-01-10T19:43:38.140Z,4.80
2023-01-10T19:46:07.489Z,4.84
2023-01-10T19:48:38.368Z,4.82
2023-01-10T19:51:07.954Z,4.85
2023-01-10T19:53:37.174Z,4.94
2023-01-10T19:56:07.546Z,5.19
2023-01-10T19:58:36.162Z,5.18
2023-01-10T20:01:09.511Z,4.99
2023-01-10T20:03:41.061Z,4.94
2023-01-10T20:06:10.695Z,4.76
2023-01-10T20:08:38.819Z,4.93
2023-01-10T20:11:07.961Z,4.83
2023-01-10T20:13:38.938Z,5.20
2023-01-10T20:16:08.057Z,5.22
2023-01-10T20:18:36.205Z,5.14
2023-01-10T20:21:07.293Z,5.25
2023-01-10T20:23:35.439Z,5.33
2023-01-10T20:26:06.510Z,5.36
2023-01-10T20:28:35.531Z,5.42
2023-01-10T20:31:04.269Z,5.33
2023-01-10T20:33:34.557Z,5.37
2023-01-10T20:36:05.298Z,5.42
2023-01-10T20:38:36.821Z,5.26
2023-01-10T20:41:07.271Z,5.34
2023-01-10T20:43:35.965Z,5.20
2023-01-10T20:46:08.618Z,5.16
2023-01-10T20:48:36.780Z,5.10
2023-01-10T20:51:05.261Z,5.27
2023-01-10T20:53:34.776Z,4.89
2023-01-10T20:56:04.067Z,5.12
2023-01-10T20:58:33.064Z,5.10
2023-01-10T21:01:01.156Z,5.40
2023-01-10T21:03:29.253Z,5.16
2023-01-10T21:05:58.653Z,5.09
2023-01-10T21:08:29.633Z,5.23
2023-01-10T21:10:59.576Z,5.20
2023-01-10T21:13:28.161Z,5.34
2023-01-10T21:15:57.938Z,5.37
2023-01-10T21:18:27.828Z,5.20
2023-01-10T21:20:58.055Z,5.37
2023-01-10T21:23:27.969Z,5.60
2023-01-10T21:26:04.157Z,5.39
2023-01-10T21:28:34.572Z,5.63
2023-01-10T21:31:02.823Z,5.53
2023-01-10T21:33:30.935Z,5.52
2023-01-10T21:35:59.983Z,5.65
2023-01-10T21:38:29.757Z,5.76
2023-01-10T21:41:05.371Z,5.83
2023-01-10T21:43:35.062Z,5.82
2023-01-10T21:46:03.240Z,5.72
2023-01-10T21:48:31.365Z,5.67
2023-01-10T21:50:59.513Z,5.67
2023-01-10T21:53:28.342Z,5.74
2023-01-10T21:55:59.571Z,5.64
2023-01-10T21:58:27.811Z,5.63
2023-01-10T22:00:59.295Z,5.62
2023-01-10T22:03:27.726Z,5.59
2023-01-10T22:05:55.827Z,5.57
2023-01-10T22:08:24.188Z,5.47
2023-01-10T22:10:52.252Z,5.43
2023-01-10T22:13:20.479Z,5.40
2023-01-10T22:15:49.446Z,5.16
2023-01-10T22:18:19.064Z,5.09
2023-01-10T22:20:47.642Z,5.11
2023-01-10T22:23:15.695Z,5.02
2023-01-10T22:25:43.761Z,4.86
2023-01-10T22:28:11.928Z,4.70
2023-01-10T22:30:40.066Z,4.94
2023-01-10T22:33:08.099Z,4.99
2023-01-10T22:35:37.615Z,5.21
2023-01-10T22:38:05.682Z,5.12
2023-01-10T22:40:33.857Z,5.16
2023-01-10T22:43:01.923Z,5.11
2023-01-10T22:45:31.457Z,5.03
2023-01-10T22:47:59.604Z,5.06
2023-01-10T22:50:27.834Z,4.85
2023-01-10T22:52:57.266Z,4.83
2023-01-10T22:55:25.366Z,5.06
2023-01-10T22:57:53.499Z,5.36
2023-01-10T23:00:22.222Z,5.64
2023-01-10T23:02:50.320Z,5.75
2023-01-10T23:05:18.644Z,5.89
2023-01-10T23:07:46.749Z,5.89
2023-01-10T23:10:29.326Z,5.68
2023-01-10T23:12:58.676Z,5.48
2023-01-10T23:15:27.079Z,5.65
2023-01-10T23:17:55.340Z,5.61
2023-01-10T23:20:23.483Z,5.83
2023-01-10T23:22:51.545Z,5.89
2023-01-10T23:25:21.138Z,5.90
2023-01-10T23:27:49.241Z,5.53
2023-01-10T23:30:17.664Z,5.61
2023-01-10T23:32:45.763Z,5.76
2023-01-10T23:35:13.892Z,5.83
2023-01-10T23:37:42.115Z,5.93
2023-01-10T23:40:11.598Z,5.90
2023-01-10T23:42:41.161Z,5.97
2023-01-10T23:45:10.563Z,5.84
2023-01-10T23:47:38.689Z,5.88
2023-01-10T23:50:07.694Z,5.85
2023-01-10T23:52:35.824Z,6.01
2023-01-10T23:55:03.895Z,6.01
2023-01-10T23:57:31.946Z,6.03
